Time;durP1;ratioP1;P1;durP2;ratioP2;P2;SDS_P1;SDS_P2;PMS_P1;PMS_P2;Temp;Humidity;BMP_temperature;BMP_pressure;BME280_temperature;BME280_humidity;BME280_pressure;Samples;Min_cycle;Max_cycle;Signal;HPM_P1;HPM_P2
2023/05/27 00:00:08;;;;;;;11.73;3.33;;;14.80;60.10;;;;;;5063920;28;20040;-70
2023/05/27 00:02:35;;;;;;;10.83;3.33;;;14.80;59.80;;;;;;5060703;28;20075;-62
2023/05/27 00:05:02;;;;;;;10.43;2.72;;;14.90;59.50;;;;;;5056928;28;20040;-62
2023/05/27 00:07:29;;;;;;;11.60;2.88;;;14.80;59.30;;;;;;5054787;28;20154;-61
2023/05/27 00:09:57;;;;;;;11.82;3.13;;;14.80;59.40;;;;;;5065792;28;20058;-61
2023/05/27 00:12:24;;;;;;;8.95;3.03;;;14.70;59.40;;;;;;5057665;28;20099;-70
2023/05/27 00:14:51;;;;;;;9.75;2.28;;;14.70;59.50;;;;;;5062533;28;20057;-70
2023/05/27 00:17:19;;;;;;;6.97;2.30;;;14.60;60.20;;;;;;5067720;28;20040;-67
2023/05/27 00:19:47;;;;;;;12.50;3.30;;;14.50;60.70;;;;;;5059402;28;20060;-67
2023/05/27 00:22:15;;;;;;;12.65;2.83;;;14.50;60.70;;;;;;5057359;28;20052;-70
2023/05/27 00:24:42;;;;;;;8.65;2.65;;;14.50;60.80;;;;;;5051345;28;20505;-70
2023/05/27 00:27:11;;;;;;;11.70;2.72;;;14.40;61.10;;;;;;5057672;28;20048;-63
2023/05/27 00:29:37;;;;;;;9.75;3.00;;;14.40;61.70;;;;;;5055719;28;20085;-62
2023/05/27 00:32:05;;;;;;;10.05;3.33;;;14.30;62.30;;;;;;5051170;28;20036;-70
2023/05/27 00:34:32;;;;;;;10.90;3.10;;;14.20;62.50;;;;;;5063263;28;20045;-70
2023/05/27 00:36:59;;;;;;;8.45;3.35;;;14.20;62.50;;;;;;5041505;28;20059;-63
2023/05/27 00:39:26;;;;;;;10.77;2.83;;;14.10;62.90;;;;;;5058577;28;20056;-62
2023/05/27 00:41:55;;;;;;;8.38;3.00;;;14.10;63.20;;;;;;5054267;28;20052;-71
2023/05/27 00:44:23;;;;;;;10.38;3.83;;;14.00;63.50;;;;;;5058660;28;20040;-70
2023/05/27 00:46:50;;;;;;;9.48;3.55;;;14.10;63.00;;;;;;5035412;28;20047;-61
2023/05/27 00:49:18;;;;;;;10.35;3.72;;;14.10;63.00;;;;;;5057194;28;20057;-62
2023/05/27 00:51:45;;;;;;;11.70;3.72;;;14.10;63.30;;;;;;5043323;28;21016;-76
2023/05/27 00:54:12;;;;;;;8.85;3.25;;;14.00;63.50;;;;;;5058950;28;20053;-76
2023/05/27 00:56:39;;;;;;;12.93;3.95;;;14.00;63.40;;;;;;5046546;28;20048;-68
2023/05/27 00:59:06;;;;;;;10.27;3.67;;;13.90;63.60;;;;;;5047951;28;20044;-67
2023/05/27 01:01:36;;;;;;;11.05;4.15;;;13.80;64.00;;;;;;5066361;28;20036;-64
2023/05/27 01:04:04;;;;;;;9.25;3.35;;;13.70;64.50;;;;;;5062741;28;20145;-63
2023/05/27 01:06:41;;;;;;;10.93;3.85;;;13.60;65.00;;;;;;5067195;28;20424;-62
2023/05/27 01:09:14;;;;;;;9.70;3.72;;;13.60;65.10;;;;;;5066761;28;20041;-60
2023/05/27 01:11:46;;;;;;;8.77;3.20;;;13.50;65.10;;;;;;5042863;28;20063;-78
2023/05/27 01:14:15;;;;;;;10.98;3.55;;;13.40;65.50;;;;;;5050091;28;20487;-76
2023/05/27 01:16:45;;;;;;;8.68;2.83;;;13.40;65.80;;;;;;5051443;28;20597;-69
2023/05/27 01:19:16;;;;;;;9.20;3.03;;;13.40;65.90;;;;;;5061373;28;20048;-68
2023/05/27 01:21:50;;;;;;;8.55;3.15;;;13.30;66.00;;;;;;5058630;28;20122;-71
2023/05/27 01:24:18;;;;;;;11.00;3.60;;;13.30;66.10;;;;;;5068543;28;20040;-70
2023/05/27 01:26:45;;;;;;;10.95;3.50;;;13.20;66.20;;;;;;5049303;28;20064;-70
2023/05/27 01:29:12;;;;;;;10.88;3.03;;;13.10;66.50;;;;;;5042112;28;20040;-70
2023/05/27 01:31:43;;;;;;;8.73;3.10;;;13.10;66.50;;;;;;5067016;28;20045;-61
2023/05/27 01:34:17;;;;;;;10.10;2.90;;;13.10;66.80;;;;;;5044102;28;20071;-62
2023/05/27 01:36:48;;;;;;;9.15;2.65;;;13.10;67.00;;;;;;5061535;28;20531;-67
2023/05/27 01:39:16;;;;;;;8.27;2.63;;;13.10;67.10;;;;;;5065898;28;20044;-68
2023/05/27 01:41:47;;;;;;;10.18;3.03;;;13.00;67.10;;;;;;5069285;28;20045;-70
2023/05/27 01:44:17;;;;;;;6.03;2.60;;;13.10;67.20;;;;;;5044307;28;20409;-70
2023/05/27 01:46:44;;;;;;;11.37;3.20;;;13.10;67.20;;;;;;5045663;28;20419;-62
2023/05/27 01:49:13;;;;;;;7.90;2.92;;;13.00;67.20;;;;;;5057297;28;20037;-62
2023/05/27 01:51:40;;;;;;;10.82;3.20;;;13.00;67.40;;;;;;5053738;28;20056;-78
2023/05/27 01:54:07;;;;;;;11.07;3.20;;;12.90;67.10;;;;;;5061909;28;20036;-76
2023/05/27 01:56:34;;;;;;;11.65;3.13;;;12.90;67.20;;;;;;5040079;28;20064;-71
2023/05/27 01:59:02;;;;;;;12.05;3.63;;;12.90;67.00;;;;;;5061695;28;20040;-71
2023/05/27 02:01:30;;;;;;;8.63;3.08;;;12.90;67.00;;;;;;5047273;28;20891;-68
2023/05/27 02:03:57;;;;;;;9.90;3.20;;;12.90;67.10;;;;;;5044531;28;20086;-68
2023/05/27 02:06:25;;;;;;;9.57;3.00;;;12.80;67.10;;;;;;5061121;28;20044;-62
2023/05/27 02:08:52;;;;;;;10.85;3.20;;;12.80;67.00;;;;;;5044491;28;20135;-60
2023/05/27 02:11:19;;;;;;;11.73;3.35;;;12.80;67.00;;;;;;5067043;28;20040;-71
2023/05/27 02:13:46;;;;;;;9.95;3.60;;;12.90;67.00;;;;;;5042710;28;20118;-70
2023/05/27 02:16:14;;;;;;;9.27;3.22;;;12.70;67.30;;;;;;5034415;28;20048;-70
2023/05/27 02:18:41;;;;;;;9.27;2.75;;;12.60;67.50;;;;;;5051628;28;20045;-70
2023/05/27 02:21:08;;;;;;;11.25;3.28;;;12.60;68.00;;;;;;5036649;28;20112;-70
2023/05/27 02:23:36;;;;;;;10.65;3.22;;;12.60;68.10;;;;;;5039395;28;20059;-70
2023/05/27 02:26:03;;;;;;;11.48;3.40;;;12.60;68.10;;;;;;5060747;28;20462;-79
2023/05/27 02:28:30;;;;;;;8.52;2.72;;;12.50;68.10;;;;;;5063621;28;20076;-78
2023/05/27 02:30:58;;;;;;;11.30;2.65;;;12.50;68.00;;;;;;5039893;28;20056;-71
2023/05/27 02:33:26;;;;;;;9.82;2.92;;;12.40;68.10;;;;;;5059856;28;20507;-70
2023/05/27 02:35:53;;;;;;;10.02;3.33;;;12.40;68.20;;;;;;5065163;28;20053;-77
2023/05/27 02:38:20;;;;;;;9.95;3.35;;;12.40;68.30;;;;;;5061742;28;20057;-75
2023/05/27 02:40:48;;;;;;;11.55;3.30;;;12.40;68.40;;;;;;5039309;28;20074;-62
2023/05/27 02:43:15;;;;;;;12.15;3.47;;;12.30;68.50;;;;;;5045941;28;20053;-62
2023/05/27 02:45:42;;;;;;;10.10;2.95;;;12.30;68.50;;;;;;5038946;28;20508;-70
2023/05/27 02:48:09;;;;;;;7.97;2.88;;;12.30;68.70;;;;;;5042965;28;20109;-70
2023/05/27 02:50:40;;;;;;;13.23;3.05;;;12.30;68.60;;;;;;5053791;28;20045;-68
2023/05/27 02:53:07;;;;;;;9.80;3.60;;;12.20;68.60;;;;;;5033029;28;20072;-69
2023/05/27 02:55:34;;;;;;;10.07;3.35;;;12.20;68.70;;;;;;5061920;28;20404;-70
2023/05/27 02:58:02;;;;;;;10.07;3.17;;;12.20;68.50;;;;;;5059969;28;20049;-70
2023/05/27 03:00:30;;;;;;;8.15;2.63;;;12.20;68.50;;;;;;5044936;28;20059;-70
2023/05/27 03:02:57;;;;;;;7.55;3.20;;;12.20;68.50;;;;;;5044249;28;20508;-70
2023/05/27 03:05:24;;;;;;;9.30;2.95;;;12.20;68.30;;;;;;5046671;28;20064;-69
2023/05/27 03:07:52;;;;;;;8.27;3.20;;;12.20;68.60;;;;;;5048011;28;20036;-73
2023/05/27 03:10:19;;;;;;;8.63;2.63;;;12.20;68.50;;;;;;5061253;28;20051;-70
2023/05/27 03:12:46;;;;;;;11.32;3.17;;;12.20;68.40;;;;;;5045413;28;20051;-70
2023/05/27 03:15:14;;;;;;;8.70;2.88;;;12.20;68.50;;;;;;5035315;28;20111;-70
2023/05/27 03:17:41;;;;;;;10.65;2.85;;;12.00;68.90;;;;;;5044637;28;20041;-67
2023/05/27 03:20:11;;;;;;;7.07;2.63;;;12.00;68.80;;;;;;5044818;28;20048;-67
2023/05/27 03:22:38;;;;;;;7.75;3.05;;;12.00;69.10;;;;;;5047550;28;20136;-62
2023/05/27 03:25:07;;;;;;;10.27;3.42;;;11.90;69.30;;;;;;5063514;28;20691;-63
2023/05/27 03:27:35;;;;;;;10.70;3.95;;;11.80;69.60;;;;;;5033223;28;20415;-62
2023/05/27 03:30:04;;;;;;;12.65;4.10;;;11.70;69.80;;;;;;5043844;28;20040;-61
2023/05/27 03:32:31;;;;;;;8.98;3.20;;;11.60;70.00;;;;;;5053277;28;20518;-60
2023/05/27 03:34:58;;;;;;;9.30;3.67;;;11.60;70.30;;;;;;5063987;28;20071;-61
2023/05/27 03:37:25;;;;;;;11.23;3.30;;;11.50;70.40;;;;;;5039896;28;20053;-72
2023/05/27 03:40:00;;;;;;;9.48;3.05;;;11.60;70.50;;;;;;5044690;28;20517;-71
2023/05/27 03:42:29;;;;;;;6.85;3.20;;;11.60;70.40;;;;;;5042952;28;20045;-69
2023/05/27 03:44:56;;;;;;;9.13;2.97;;;11.70;70.20;;;;;;5032495;28;20064;-72
2023/05/27 03:47:24;;;;;;;12.85;3.38;;;11.70;69.80;;;;;;5043873;28;20059;-71
2023/05/27 03:49:51;;;;;;;10.73;3.35;;;11.70;69.70;;;;;;5057658;28;20084;-70
2023/05/27 03:52:19;;;;;;;12.48;3.42;;;11.70;69.60;;;;;;5034981;28;20056;-66
2023/05/27 03:54:46;;;;;;;11.52;3.25;;;11.70;69.80;;;;;;5055117;28;20048;-67
2023/05/27 03:57:13;;;;;;;12.07;3.38;;;11.60;70.30;;;;;;5062075;28;20091;-70
2023/05/27 03:59:42;;;;;;;9.70;3.13;;;11.50;70.50;;;;;;5055129;28;20077;-69
2023/05/27 04:02:09;;;;;;;10.13;3.50;;;11.50;70.80;;;;;;5049645;28;20094;-67
2023/05/27 04:04:35;;;;;;;10.40;3.35;;;11.40;70.80;;;;;;5052820;28;20044;-67
2023/05/27 04:07:02;;;;;;;7.85;3.20;;;11.50;70.80;;;;;;5042438;28;20438;-69
2023/05/27 04:09:29;;;;;;;8.57;2.72;;;11.50;70.70;;;;;;5039596;28;20048;-70
2023/05/27 04:11:56;;;;;;;8.35;3.03;;;11.70;70.30;;;;;;5053071;28;20044;-74
2023/05/27 04:14:23;;;;;;;10.23;3.25;;;11.60;70.30;;;;;;5042159;28;20040;-76
2023/05/27 04:16:52;;;;;;;11.30;3.25;;;11.60;70.30;;;;;;5056451;28;20047;-70
2023/05/27 04:19:20;;;;;;;9.20;2.80;;;11.60;70.30;;;;;;5054539;28;20066;-71
2023/05/27 04:21:48;;;;;;;7.05;2.70;;;11.70;70.30;;;;;;5043745;28;20052;-69
2023/05/27 04:24:15;;;;;;;11.20;3.17;;;11.70;70.20;;;;;;5038124;28;20051;-71
2023/05/27 04:26:45;;;;;;;11.93;3.50;;;11.70;70.30;;;;;;5046731;28;20045;-62
2023/05/27 04:29:15;;;;;;;8.57;3.03;;;11.60;70.60;;;;;;5040136;28;20053;-62
2023/05/27 04:31:44;;;;;;;10.48;2.90;;;11.60;70.60;;;;;;5041779;28;20049;-67
2023/05/27 04:34:16;;;;;;;8.43;2.72;;;11.70;70.60;;;;;;5045451;28;20072;-68
2023/05/27 04:36:43;;;;;;;10.68;3.50;;;11.70;70.30;;;;;;5050177;28;20052;-70
2023/05/27 04:39:13;;;;;;;10.45;3.92;;;11.70;70.50;;;;;;5049763;28;20060;-69
2023/05/27 04:41:43;;;;;;;8.95;2.90;;;11.70;70.40;;;;;;5041924;28;20060;-62
2023/05/27 04:44:19;;;;;;;9.25;3.10;;;11.80;70.30;;;;;;5045795;28;20045;-62
2023/05/27 04:46:49;;;;;;;11.07;3.28;;;11.90;69.60;;;;;;5058088;28;20119;-62
2023/05/27 04:49:17;;;;;;;10.20;3.25;;;12.00;69.20;;;;;;5046429;28;20065;-63
2023/05/27 04:51:44;;;;;;;9.23;3.08;;;12.10;69.20;;;;;;5045302;28;20048;-69
2023/05/27 04:54:12;;;;;;;9.73;3.17;;;12.10;69.00;;;;;;5049611;28;20131;-72
2023/05/27 04:56:39;;;;;;;12.15;3.08;;;12.10;69.00;;;;;;5050303;28;20051;-70
2023/05/27 04:59:07;;;;;;;10.40;3.20;;;12.10;68.80;;;;;;5047020;28;20052;-70
2023/05/27 05:01:48;;;;;;;11.52;3.60;;;12.00;69.20;;;;;;5035913;28;20068;-71
2023/05/27 05:04:24;;;;;;;7.97;2.85;;;12.10;69.10;;;;;;5057406;28;20044;-70
2023/05/27 05:06:55;;;;;;;11.65;2.70;;;12.20;68.60;;;;;;5044606;28;20069;-70
2023/05/27 05:09:23;;;;;;;7.25;2.60;;;12.20;68.70;;;;;;5039644;28;20090;-71
2023/05/27 05:11:51;;;;;;;11.40;3.60;;;12.20;68.60;;;;;;5047082;28;20459;-70
2023/05/27 05:14:18;;;;;;;8.57;2.83;;;12.20;68.30;;;;;;5047383;28;20037;-70
2023/05/27 05:16:46;;;;;;;9.85;3.20;;;12.20;68.30;;;;;;5056451;28;20134;-70
2023/05/27 05:19:13;;;;;;;9.85;3.05;;;12.30;68.30;;;;;;5045062;28;20055;-70
2023/05/27 05:21:42;;;;;;;9.93;3.20;;;12.30;68.20;;;;;;5045869;28;20044;-71
2023/05/27 05:24:12;;;;;;;11.30;3.05;;;12.40;68.40;;;;;;5063347;28;20136;-70
2023/05/27 05:26:40;;;;;;;11.63;3.03;;;12.40;68.30;;;;;;5041930;28;20528;-70
2023/05/27 05:29:07;;;;;;;10.35;2.70;;;12.40;68.00;;;;;;5048271;28;20052;-70
2023/05/27 05:31:34;;;;;;;9.50;3.13;;;12.40;68.20;;;;;;5042250;28;20048;-77
2023/05/27 05:34:03;;;;;;;8.82;3.17;;;12.40;68.10;;;;;;5045232;28;20059;-76
2023/05/27 05:36:33;;;;;;;8.32;3.15;;;12.50;68.20;;;;;;5046810;28;20906;-70
2023/05/27 05:39:05;;;;;;;9.60;3.10;;;12.50;68.10;;;;;;5036352;28;20096;-70
2023/05/27 05:41:33;;;;;;;9.80;3.10;;;12.50;68.10;;;;;;5047234;28;20045;-70
2023/05/27 05:44:00;;;;;;;10.45;3.28;;;12.50;68.20;;;;;;5045344;28;20500;-71
2023/05/27 05:46:27;;;;;;;8.73;2.70;;;12.60;68.00;;;;;;5063468;28;20053;-70
2023/05/27 05:48:54;;;;;;;10.88;2.92;;;12.60;67.70;;;;;;5036031;28;20045;-70
2023/05/27 05:51:31;;;;;;;6.53;2.30;;;12.60;68.10;;;;;;5050163;28;20130;-70
2023/05/27 05:54:00;;;;;;;11.55;3.08;;;12.70;68.00;;;;;;5048170;28;20127;-70
2023/05/27 05:56:29;;;;;;;7.95;2.80;;;12.70;67.90;;;;;;5047296;28;20076;-71
2023/05/27 05:58:56;;;;;;;9.65;3.00;;;12.70;67.70;;;;;;5043043;28;20044;-70
2023/05/27 06:01:26;;;;;;;9.65;3.25;;;12.70;67.70;;;;;;5042795;28;20056;-72
2023/05/27 06:03:53;;;;;;;9.30;2.70;;;12.80;67.60;;;;;;5039528;28;20044;-70
2023/05/27 06:06:34;;;;;;;10.20;2.80;;;12.80;67.60;;;;;;5043608;28;20080;-70
2023/05/27 06:09:24;;;;;;;9.95;2.78;;;12.90;67.60;;;;;;5058866;28;20040;-69
2023/05/27 06:11:56;;;;;;;9.40;3.20;;;12.90;67.50;;;;;;5040847;28;20048;-66
2023/05/27 06:14:23;;;;;;;12.48;3.58;;;12.90;67.20;;;;;;5036064;28;20496;-67
2023/05/27 06:16:53;;;;;;;10.38;3.22;;;13.00;67.10;;;;;;5042974;28;20056;-71
2023/05/27 06:19:20;;;;;;;9.05;3.03;;;13.10;67.10;;;;;;5059420;28;20052;-70
2023/05/27 06:21:47;;;;;;;8.30;3.00;;;13.20;67.10;;;;;;5040481;28;20045;-70
2023/05/27 06:24:20;;;;;;;9.30;2.88;;;13.20;66.50;;;;;;5060382;28;20041;-70
2023/05/27 06:26:52;;;;;;;11.10;2.72;;;13.20;66.50;;;;;;5047314;28;20052;-62
2023/05/27 06:29:21;;;;;;;12.68;3.20;;;13.30;66.90;;;;;;5059475;28;20045;-62
2023/05/27 06:31:48;;;;;;;11.20;3.17;;;13.50;66.80;;;;;;5036624;28;20061;-70
2023/05/27 06:34:16;;;;;;;8.40;2.40;;;13.60;66.60;;;;;;5045217;28;20040;-70
2023/05/27 06:36:43;;;;;;;11.98;3.03;;;13.70;66.20;;;;;;5058749;28;20056;-67
2023/05/27 06:39:10;;;;;;;12.57;3.40;;;13.80;65.80;;;;;;5066763;28;20040;-68
2023/05/27 06:41:38;;;;;;;10.95;3.15;;;14.00;65.40;;;;;;5044425;28;20053;-70
2023/05/27 06:44:35;;;;;;;11.35;3.10;;;14.20;65.20;;;;;;5043609;28;20527;-70
2023/05/27 06:47:11;;;;;;;8.90;2.92;;;14.30;64.20;;;;;;5044773;28;20136;-70
2023/05/27 06:49:38;;;;;;;10.02;3.10;;;14.50;63.60;;;;;;5033869;28;20130;-70
2023/05/27 06:52:07;;;;;;;8.85;2.85;;;14.60;63.40;;;;;;5042884;28;20518;-62
2023/05/27 06:54:46;;;;;;;10.90;3.05;;;14.80;63.20;;;;;;5045688;28;20132;-61
2023/05/27 06:57:33;;;;;;;9.25;3.28;;;15.00;62.90;;;;;;5013431;28;20056;-67
2023/05/27 07:00:11;;;;;;;7.72;3.00;;;15.20;62.40;;;;;;5036650;28;20179;-66
2023/05/27 07:02:48;;;;;;;7.78;3.17;;;15.30;62.10;;;;;;5052902;28;20056;-63
2023/05/27 07:05:14;;;;;;;8.68;2.80;;;15.50;62.10;;;;;;5046297;28;20055;-61
2023/05/27 07:07:42;;;;;;;12.55;3.45;;;15.60;61.40;;;;;;5046749;28;20072;-77
2023/05/27 07:10:09;;;;;;;9.95;3.08;;;15.90;61.20;;;;;;5041734;28;20051;-78
2023/05/27 07:12:37;;;;;;;10.77;3.10;;;16.00;61.10;;;;;;5043921;28;20044;-75
2023/05/27 07:15:22;;;;;;;10.27;3.10;;;16.10;60.70;;;;;;5045100;28;20049;-76
2023/05/27 07:17:49;;;;;;;10.77;3.08;;;16.20;60.00;;;;;;5044824;28;20090;-69
2023/05/27 07:20:16;;;;;;;11.60;2.88;;;16.30;60.50;;;;;;5060745;28;20047;-68
2023/05/27 07:22:44;;;;;;;9.38;3.33;;;16.50;59.90;;;;;;5042685;28;20151;-70
2023/05/27 07:25:10;;;;;;;9.38;3.30;;;16.60;59.20;;;;;;5047339;28;20514;-70
2023/05/27 07:27:38;;;;;;;11.18;3.35;;;16.80;59.00;;;;;;5040397;28;20052;-70
2023/05/27 07:30:06;;;;;;;9.93;3.30;;;16.80;59.30;;;;;;5043641;28;20067;-71
2023/05/27 07:32:49;;;;;;;12.57;3.50;;;17.00;58.90;;;;;;5043675;28;20048;-68
2023/05/27 07:35:16;;;;;;;8.45;3.25;;;17.20;58.40;;;;;;5042950;28;20541;-68
2023/05/27 07:37:43;;;;;;;9.38;3.13;;;17.10;58.30;;;;;;5059618;28;20401;-72
2023/05/27 07:40:10;;;;;;;12.57;3.78;;;17.20;58.10;;;;;;5046308;28;20052;-71
2023/05/27 07:42:40;;;;;;;9.88;3.00;;;17.40;57.60;;;;;;5030633;28;20056;-64
2023/05/27 07:45:08;;;;;;;14.57;3.03;;;17.60;57.60;;;;;;5060441;28;20056;-62
2023/05/27 07:47:35;;;;;;;9.20;3.20;;;17.70;57.20;;;;;;5045681;28;20056;-70
2023/05/27 07:50:04;;;;;;;8.77;2.78;;;17.90;56.90;;;;;;5058420;28;20051;-70
2023/05/27 07:52:37;;;;;;;9.70;3.28;;;18.00;56.10;;;;;;5057262;28;20080;-67
2023/05/27 07:55:14;;;;;;;8.60;3.17;;;18.10;55.50;;;;;;5042761;28;20048;-68
2023/05/27 07:57:43;;;;;;;10.77;3.40;;;18.20;55.60;;;;;;5045055;28;20136;-70
2023/05/27 08:00:11;;;;;;;10.45;3.38;;;18.40;54.80;;;;;;5058519;28;20416;-63
2023/05/27 08:02:58;;;;;;;11.27;3.15;;;18.50;54.70;;;;;;5057632;28;20044;-61
2023/05/27 08:05:40;;;;;;;12.63;2.90;;;18.60;55.20;;;;;;5046141;28;20060;-63
2023/05/27 08:08:25;;;;;;;12.20;3.42;;;18.70;54.20;;;;;;5063291;28;20052;-63
2023/05/27 08:11:16;;;;;;;11.38;3.15;;;18.80;54.40;;;;;;5052042;28;20049;-63
2023/05/27 08:14:08;;;;;;;10.48;3.00;;;19.10;54.00;;;;;;5057876;28;20044;-62
2023/05/27 08:16:54;;;;;;;8.18;3.25;;;19.20;53.50;;;;;;5059115;28;20052;-70
2023/05/27 08:19:28;;;;;;;9.88;3.30;;;19.40;52.40;;;;;;5041147;28;20554;-70
2023/05/27 08:22:16;;;;;;;8.18;3.33;;;19.50;52.90;;;;;;5060030;28;20049;-71
2023/05/27 08:25:18;;;;;;;11.77;2.90;;;19.50;52.70;;;;;;5038590;28;20448;-67
2023/05/27 08:27:51;;;;;;;11.00;3.10;;;19.50;52.40;;;;;;5062439;28;20506;-68
2023/05/27 08:30:29;;;;;;;9.73;2.80;;;19.60;52.30;;;;;;5043885;28;20048;-70
2023/05/27 08:33:04;;;;;;;10.57;3.05;;;19.70;52.10;;;;;;5040585;28;20131;-70
2023/05/27 08:35:31;;;;;;;8.48;3.28;;;19.90;51.80;;;;;;5043252;28;20041;-76
2023/05/27 08:37:59;;;;;;;10.75;3.15;;;19.90;51.50;;;;;;5063830;28;20063;-76
2023/05/27 08:40:30;;;;;;;10.15;3.17;;;20.00;52.00;;;;;;5047272;28;20048;-62
2023/05/27 08:42:57;;;;;;;9.95;3.20;;;20.10;52.30;;;;;;5033771;28;20443;-62
2023/05/27 08:45:24;;;;;;;10.48;3.55;;;20.10;51.60;;;;;;5035115;28;20127;-68
2023/05/27 08:47:52;;;;;;;9.00;2.53;;;20.20;51.30;;;;;;5037027;28;20063;-69
2023/05/27 08:50:22;;;;;;;12.52;3.45;;;20.30;51.50;;;;;;5038052;28;20110;-75
2023/05/27 08:52:53;;;;;;;10.15;2.95;;;20.50;51.10;;;;;;5055736;28;20062;-75
2023/05/27 08:55:22;;;;;;;9.60;3.00;;;20.60;50.90;;;;;;5043894;28;20094;-70
2023/05/27 08:57:55;;;;;;;10.07;3.17;;;20.70;51.20;;;;;;5060889;28;20062;-71
2023/05/27 09:00:22;;;;;;;9.18;2.90;;;20.80;50.50;;;;;;5042537;28;20044;-68
2023/05/27 09:02:51;;;;;;;10.63;3.20;;;20.90;50.30;;;;;;5034701;28;20411;-67
2023/05/27 09:05:20;;;;;;;11.18;3.53;;;21.10;50.50;;;;;;5038918;28;20055;-67
2023/05/27 09:07:47;;;;;;;10.65;3.00;;;21.10;50.30;;;;;;5059909;28;20045;-69
2023/05/27 09:10:14;;;;;;;9.23;2.80;;;21.30;49.70;;;;;;5060434;28;20447;-70
2023/05/27 09:12:45;;;;;;;8.57;3.05;;;21.30;49.30;;;;;;5040903;28;20048;-70
2023/05/27 09:15:14;;;;;;;10.48;3.05;;;21.30;49.00;;;;;;5059387;28;20049;-62
2023/05/27 09:17:42;;;;;;;8.27;3.15;;;21.50;49.30;;;;;;5063067;28;20048;-63
2023/05/27 09:20:12;;;;;;;10.75;3.45;;;21.60;49.00;;;;;;5059207;28;20164;-73
2023/05/27 09:22:40;;;;;;;9.20;3.47;;;21.70;48.90;;;;;;5055976;28;20069;-78
2023/05/27 09:25:08;;;;;;;8.45;3.28;;;21.80;47.90;;;;;;5058383;28;20407;-76
2023/05/27 09:27:35;;;;;;;8.60;3.05;;;21.90;47.90;;;;;;5062307;28;20494;-76
2023/05/27 09:30:10;;;;;;;12.45;3.33;;;22.00;47.90;;;;;;5047999;28;20055;-76
2023/05/27 09:32:37;;;;;;;11.55;3.50;;;22.10;48.20;;;;;;5064310;28;20439;-76
2023/05/27 09:35:07;;;;;;;9.70;3.30;;;22.20;46.90;;;;;;5063839;28;20090;-77
2023/05/27 09:37:34;;;;;;;10.77;3.33;;;22.20;47.20;;;;;;5065584;28;20045;-75
2023/05/27 09:40:05;;;;;;;12.38;3.45;;;22.30;47.30;;;;;;5058964;28;20045;-76
2023/05/27 09:42:40;;;;;;;8.43;2.85;;;22.40;47.40;;;;;;5060841;28;20060;-75
2023/05/27 09:45:12;;;;;;;6.70;2.83;;;22.50;47.00;;;;;;5059614;28;20056;-73
2023/05/27 09:47:40;;;;;;;8.30;3.15;;;22.60;46.20;;;;;;5066391;28;20492;-74
2023/05/27 09:50:11;;;;;;;8.50;2.78;;;22.70;46.40;;;;;;5062102;28;20047;-75
2023/05/27 09:52:40;;;;;;;10.57;3.35;;;22.80;46.60;;;;;;5064179;28;20508;-74
2023/05/27 09:55:09;;;;;;;10.50;3.40;;;22.80;46.80;;;;;;5060217;28;20480;-77
2023/05/27 09:57:36;;;;;;;14.30;4.80;;;22.90;46.10;;;;;;5063202;28;20047;-74
2023/05/27 10:00:10;;;;;;;9.85;3.60;;;22.90;46.90;;;;;;5056028;28;20044;-74
2023/05/27 10:02:41;;;;;;;11.40;3.55;;;23.00;46.80;;;;;;5061987;28;20050;-74
2023/05/27 10:05:10;;;;;;;9.63;4.13;;;23.10;46.60;;;;;;5061177;28;20412;-74
2023/05/27 10:07:38;;;;;;;11.05;3.92;;;23.20;46.20;;;;;;5066953;28;20047;-74
2023/05/27 10:10:08;;;;;;;8.53;3.67;;;23.30;45.80;;;;;;5059154;28;20910;-75
2023/05/27 10:12:35;;;;;;;;;;;23.40;45.30;;;;;;5062584;28;20478;-76
2023/05/27 10:15:02;;;;;;;9.43;3.38;;;23.40;45.40;;;;;;5060511;28;19931;-73
2023/05/27 10:17:29;;;;;;;9.70;3.28;;;23.50;44.70;;;;;;5054931;28;20052;-73
2023/05/27 10:19:58;;;;;;;9.68;3.72;;;23.60;44.90;;;;;;5065643;28;20068;-73
2023/05/27 10:22:25;;;;;;;7.80;3.00;;;23.70;44.40;;;;;;5057387;28;20051;-73
2023/05/27 10:24:53;;;;;;;8.73;2.90;;;23.80;43.90;;;;;;5060692;28;20131;-72
2023/05/27 10:27:21;;;;;;;9.70;3.00;;;23.90;42.50;;;;;;5040736;28;20066;-70
2023/05/27 10:29:58;;;;;;;9.73;3.33;;;23.90;43.10;;;;;;5054632;28;20055;-70
2023/05/27 10:32:25;;;;;;;8.57;2.97;;;23.90;43.00;;;;;;5063240;28;20079;-64
2023/05/27 10:34:55;;;;;;;11.52;3.42;;;24.00;43.10;;;;;;5061490;28;20059;-63
2023/05/27 10:37:24;;;;;;;8.25;2.97;;;24.00;42.90;;;;;;5056049;28;20125;-74
2023/05/27 10:39:55;;;;;;;8.82;2.83;;;24.10;42.80;;;;;;5063194;28;20094;-72
2023/05/27 10:42:22;;;;;;;8.52;3.30;;;24.10;42.70;;;;;;5060062;28;20036;-64
2023/05/27 10:44:49;;;;;;;9.55;3.05;;;24.20;42.50;;;;;;5062694;28;20049;-61
2023/05/27 10:47:16;;;;;;;8.25;2.75;;;24.30;42.90;;;;;;5059486;28;20044;-70
2023/05/27 10:49:48;;;;;;;10.90;2.70;;;24.30;42.30;;;;;;5056539;28;20049;-70
2023/05/27 10:52:17;;;;;;;9.93;3.15;;;24.30;42.50;;;;;;5060712;28;20049;-69
2023/05/27 10:54:46;;;;;;;;;;;24.50;42.10;;;;;;5060402;28;20044;-69
2023/05/27 10:57:14;;;;;;;9.13;2.58;;;24.50;41.90;;;;;;5057726;28;20381;-63
2023/05/27 10:59:46;;;;;;;9.95;3.17;;;24.60;41.80;;;;;;5060360;28;20461;-63
2023/05/27 11:02:12;;;;;;;8.18;3.10;;;24.60;41.70;;;;;;5057836;28;20093;-72
2023/05/27 11:04:40;;;;;;;7.80;3.03;;;24.60;41.30;;;;;;5057801;28;20432;-71
2023/05/27 11:07:07;;;;;;;7.82;3.15;;;24.70;41.10;;;;;;5061770;28;20068;-69
2023/05/27 11:09:45;;;;;;;8.57;3.25;;;24.80;41.30;;;;;;5062799;28;20068;-70
2023/05/27 11:12:16;;;;;;;7.50;2.78;;;24.80;41.20;;;;;;5060794;28;20044;-71
2023/05/27 11:14:43;;;;;;;9.48;3.28;;;24.80;40.60;;;;;;5059525;28;20376;-71
2023/05/27 11:17:11;;;;;;;7.85;3.50;;;24.90;40.40;;;;;;5058139;28;20128;-67
2023/05/27 11:19:40;;;;;;;7.75;3.50;;;24.90;41.30;;;;;;5054434;28;20048;-68
2023/05/27 11:22:08;;;;;;;9.60;3.00;;;24.90;41.00;;;;;;5055839;28;20040;-62
2023/05/27 11:24:36;;;;;;;9.13;3.17;;;24.90;40.80;;;;;;5058646;28;20451;-62
2023/05/27 11:27:10;;;;;;;7.55;3.17;;;25.10;41.00;;;;;;5056823;28;20048;-69
2023/05/27 11:29:37;;;;;;;8.73;3.38;;;25.10;40.50;;;;;;5038904;28;20507;-70
2023/05/27 11:32:06;;;;;;;7.78;2.78;;;25.00;40.30;;;;;;5054671;28;20045;-69
2023/05/27 11:34:35;;;;;;;8.45;3.10;;;25.10;39.30;;;;;;5057781;28;20046;-71
2023/05/27 11:37:03;;;;;;;7.55;3.25;;;25.10;39.20;;;;;;5065077;28;20094;-70
2023/05/27 11:39:31;;;;;;;8.25;2.88;;;25.10;39.60;;;;;;5061874;28;20049;-70
2023/05/27 11:41:58;;;;;;;9.38;3.25;;;25.20;39.20;;;;;;5056440;28;20121;-62
2023/05/27 11:44:27;;;;;;;7.43;2.90;;;25.20;39.40;;;;;;5052606;28;20053;-63
2023/05/27 11:47:00;;;;;;;7.75;3.00;;;25.20;38.20;;;;;;5060875;28;20051;-72
2023/05/27 11:49:29;;;;;;;8.07;3.05;;;25.30;38.50;;;;;;5053282;28;20048;-70
2023/05/27 11:51:57;;;;;;;8.53;2.73;;;25.30;38.90;;;;;;5061287;28;20130;-63
2023/05/27 11:54:26;;;;;;;6.15;2.55;;;25.30;39.40;;;;;;5053077;28;20052;-64
2023/05/27 11:56:55;;;;;;;7.97;2.70;;;25.30;39.70;;;;;;5056737;28;20036;-61
2023/05/27 11:59:22;;;;;;;8.75;2.88;;;25.30;38.80;;;;;;5061292;28;20043;-65
2023/05/27 12:01:53;;;;;;;8.35;3.05;;;25.20;39.30;;;;;;5059499;28;20056;-70
2023/05/27 12:04:20;;;;;;;6.85;2.78;;;25.20;39.30;;;;;;5056790;28;20538;-69
2023/05/27 12:06:47;;;;;;;7.50;3.08;;;25.30;39.80;;;;;;5064802;28;20049;-70
2023/05/27 12:09:15;;;;;;;9.75;3.60;;;25.40;38.80;;;;;;5062200;28;20131;-70
2023/05/27 12:11:42;;;;;;;6.20;2.90;;;25.50;38.80;;;;;;5054169;28;20044;-70
2023/05/27 12:14:09;;;;;;;8.85;3.13;;;25.50;38.70;;;;;;5055419;28;20052;-70
2023/05/27 12:16:36;;;;;;;10.52;3.08;;;25.40;39.60;;;;;;5055777;28;20055;-70
2023/05/27 12:19:04;;;;;;;7.85;2.95;;;25.40;38.90;;;;;;5055791;28;20475;-70
2023/05/27 12:21:32;;;;;;;6.97;3.05;;;25.30;38.70;;;;;;5038588;28;20057;-69
2023/05/27 12:23:59;;;;;;;8.40;2.90;;;25.30;39.10;;;;;;5058734;28;20146;-70
2023/05/27 12:26:26;;;;;;;6.85;2.58;;;25.30;39.30;;;;;;5055356;28;20047;-69
2023/05/27 12:28:53;;;;;;;8.10;3.25;;;25.40;39.00;;;;;;5057229;28;20463;-70
2023/05/27 12:31:20;;;;;;;7.60;2.88;;;25.30;38.70;;;;;;5052502;28;20045;-63
2023/05/27 12:33:47;;;;;;;10.13;5.78;;;25.30;38.10;;;;;;5058275;28;20580;-64
2023/05/27 12:36:16;;;;;;;14.68;7.18;;;25.30;38.80;;;;;;5061114;28;20049;-63
2023/05/27 12:38:43;;;;;;;9.55;5.55;;;25.30;39.00;;;;;;5065577;28;20404;-65
2023/05/27 12:41:10;;;;;;;9.63;3.88;;;25.30;38.50;;;;;;5064595;28;20041;-69
2023/05/27 12:43:37;;;;;;;8.50;3.40;;;25.40;37.70;;;;;;5054010;28;20522;-69
2023/05/27 12:46:04;;;;;;;5.78;3.22;;;25.30;37.80;;;;;;5056341;28;20495;-69
2023/05/27 12:48:31;;;;;;;8.48;3.53;;;25.30;38.90;;;;;;5058994;28;20305;-68
2023/05/27 12:50:58;;;;;;;7.93;3.20;;;25.30;38.10;;;;;;5060370;28;20044;-70
2023/05/27 12:53:26;;;;;;;6.80;3.08;;;25.20;38.10;;;;;;5055868;28;20045;-69